sensor_id;sensor_type;location;lat;lon;timestamp;pressure;altitude;pressure_sealevel;temperature;humidity
75045;BME280;63614;56.026;35.960;2022-11-20T00:00:54;99213.19;;;-2.48;78.66
75045;BME280;63614;56.026;35.960;2022-11-20T00:03:21;99209.91;;;-2.37;77.74
75045;BME280;63614;56.026;35.960;2022-11-20T00:05:47;99217.00;;;-2.29;77.49
75045;BME280;63614;56.026;35.960;2022-11-20T00:08:13;99219.88;;;-2.58;78.38
75045;BME280;63614;56.026;35.960;2022-11-20T00:10:40;99225.59;;;-2.67;79.28
75045;BME280;63614;56.026;35.960;2022-11-20T00:13:06;99215.31;;;-2.42;78.34
75045;BME280;63614;56.026;35.960;2022-11-20T00:15:33;99219.25;;;-2.62;78.59
75045;BME280;63614;56.026;35.960;2022-11-20T00:17:59;99217.38;;;-2.71;79.38
75045;BME280;63614;56.026;35.960;2022-11-20T00:20:25;99224.16;;;-2.34;78.65
75045;BME280;63614;56.026;35.960;2022-11-20T00:22:51;99223.66;;;-2.40;78.65
75045;BME280;63614;56.026;35.960;2022-11-20T00:25:17;99219.06;;;-2.34;78.77
75045;BME280;63614;56.026;35.960;2022-11-20T00:27:43;99220.78;;;-2.35;77.85
75045;BME280;63614;56.026;35.960;2022-11-20T00:30:09;99220.34;;;-2.29;78.06
75045;BME280;63614;56.026;35.960;2022-11-20T00:32:35;99217.69;;;-2.27;78.19
75045;BME280;63614;56.026;35.960;2022-11-20T00:35:01;99216.38;;;-2.09;77.78
75045;BME280;63614;56.026;35.960;2022-11-20T00:37:29;99217.78;;;-2.05;77.28
75045;BME280;63614;56.026;35.960;2022-11-20T00:39:54;99219.31;;;-2.02;77.48
75045;BME280;63614;56.026;35.960;2022-11-20T00:42:20;99222.31;;;-1.97;76.85
75045;BME280;63614;56.026;35.960;2022-11-20T00:44:46;99217.47;;;-1.89;77.13
75045;BME280;63614;56.026;35.960;2022-11-20T00:47:12;99219.13;;;-1.88;77.26
75045;BME280;63614;56.026;35.960;2022-11-20T00:49:38;99227.41;;;-1.97;76.62
75045;BME280;63614;56.026;35.960;2022-11-20T00:52:04;99216.34;;;-1.85;76.86
75045;BME280;63614;56.026;35.960;2022-11-20T00:54:30;99219.81;;;-1.86;76.95
75045;BME280;63614;56.026;35.960;2022-11-20T00:56:55;99213.97;;;-1.99;76.94
75045;BME280;63614;56.026;35.960;2022-11-20T00:59:21;99223.00;;;-1.95;76.45
75045;BME280;63614;56.026;35.960;2022-11-20T01:01:47;99219.66;;;-1.95;75.99
75045;BME280;63614;56.026;35.960;2022-11-20T01:04:13;99224.75;;;-1.95;76.62
75045;BME280;63614;56.026;35.960;2022-11-20T01:06:39;99221.44;;;-1.85;76.37
75045;BME280;63614;56.026;35.960;2022-11-20T01:09:12;99227.78;;;-1.90;76.08
75045;BME280;63614;56.026;35.960;2022-11-20T01:11:41;99227.56;;;-1.87;76.52
75045;BME280;63614;56.026;35.960;2022-11-20T01:14:14;99227.31;;;-1.95;76.21
75045;BME280;63614;56.026;35.960;2022-11-20T01:16:46;99225.34;;;-1.92;75.97
75045;BME280;63614;56.026;35.960;2022-11-20T01:19:19;99225.25;;;-1.79;75.65
75045;BME280;63614;56.026;35.960;2022-11-20T01:21:51;99232.44;;;-1.84;75.48
75045;BME280;63614;56.026;35.960;2022-11-20T01:24:19;99224.00;;;-1.73;75.33
75045;BME280;63614;56.026;35.960;2022-11-20T01:26:48;99228.41;;;-1.75;75.89
75045;BME280;63614;56.026;35.960;2022-11-20T01:29:18;99236.66;;;-1.72;75.05
75045;BME280;63614;56.026;35.960;2022-11-20T01:31:44;99239.19;;;-1.72;75.67
75045;BME280;63614;56.026;35.960;2022-11-20T01:34:13;99237.44;;;-1.71;75.09
75045;BME280;63614;56.026;35.960;2022-11-20T01:36:40;99229.56;;;-1.68;74.84
75045;BME280;63614;56.026;35.960;2022-11-20T01:39:12;99237.13;;;-1.67;74.76
75045;BME280;63614;56.026;35.960;2022-11-20T01:41:38;99238.72;;;-1.77;75.16
75045;BME280;63614;56.026;35.960;2022-11-20T01:44:59;99244.78;;;-1.67;74.89
75045;BME280;63614;56.026;35.960;2022-11-20T01:47:29;99239.88;;;-1.81;75.98
75045;BME280;63614;56.026;35.960;2022-11-20T01:50:03;99249.72;;;-1.76;75.57
75045;BME280;63614;56.026;35.960;2022-11-20T01:52:38;99243.09;;;-1.90;75.84
75045;BME280;63614;56.026;35.960;2022-11-20T01:55:07;99253.00;;;-1.63;74.56
75045;BME280;63614;56.026;35.960;2022-11-20T01:57:35;99250.22;;;-1.60;74.57
75045;BME280;63614;56.026;35.960;2022-11-20T02:00:07;99253.50;;;-1.58;74.30
75045;BME280;63614;56.026;35.960;2022-11-20T02:02:48;99258.84;;;-1.85;75.21
75045;BME280;63614;56.026;35.960;2022-11-20T02:05:32;99256.00;;;-1.69;74.92
75045;BME280;63614;56.026;35.960;2022-11-20T02:07:59;99258.06;;;-1.74;75.02
75045;BME280;63614;56.026;35.960;2022-11-20T02:10:27;99256.91;;;-1.81;74.48
75045;BME280;63614;56.026;35.960;2022-11-20T02:12:53;99260.72;;;-2.11;76.23
75045;BME280;63614;56.026;35.960;2022-11-20T02:15:40;99259.66;;;-1.96;75.86
75045;BME280;63614;56.026;35.960;2022-11-20T02:18:06;99259.91;;;-1.88;75.28
75045;BME280;63614;56.026;35.960;2022-11-20T02:20:32;99268.00;;;-1.94;75.04
75045;BME280;63614;56.026;35.960;2022-11-20T02:23:16;99263.50;;;-1.79;74.89
75045;BME280;63614;56.026;35.960;2022-11-20T02:25:45;99267.69;;;-1.78;74.61
75045;BME280;63614;56.026;35.960;2022-11-20T02:28:13;99268.53;;;-2.02;75.61
75045;BME280;63614;56.026;35.960;2022-11-20T02:30:39;99266.34;;;-1.95;75.27
75045;BME280;63614;56.026;35.960;2022-11-20T02:33:05;99264.34;;;-1.78;74.59
75045;BME280;63614;56.026;35.960;2022-11-20T02:37:59;99264.84;;;-1.97;74.89
75045;BME280;63614;56.026;35.960;2022-11-20T02:40:26;99269.28;;;-1.88;74.64
75045;BME280;63614;56.026;35.960;2022-11-20T02:42:53;99269.78;;;-2.07;75.15
75045;BME280;63614;56.026;35.960;2022-11-20T02:45:19;99278.53;;;-2.23;75.75
75045;BME280;63614;56.026;35.960;2022-11-20T02:47:45;99275.22;;;-2.36;76.13
75045;BME280;63614;56.026;35.960;2022-11-20T02:50:12;99265.56;;;-2.20;76.26
75045;BME280;63614;56.026;35.960;2022-11-20T02:52:38;99269.94;;;-1.97;74.79
75045;BME280;63614;56.026;35.960;2022-11-20T02:55:04;99270.91;;;-1.87;74.95
75045;BME280;63614;56.026;35.960;2022-11-20T02:57:30;99273.44;;;-1.87;74.84
75045;BME280;63614;56.026;35.960;2022-11-20T02:59:55;99276.59;;;-1.84;74.01
75045;BME280;63614;56.026;35.960;2022-11-20T03:02:21;99279.38;;;-1.87;74.21
75045;BME280;63614;56.026;35.960;2022-11-20T03:04:47;99281.84;;;-1.74;73.96
75045;BME280;63614;56.026;35.960;2022-11-20T03:07:13;99280.09;;;-1.73;73.72
75045;BME280;63614;56.026;35.960;2022-11-20T03:09:39;99281.63;;;-1.71;73.90
75045;BME280;63614;56.026;35.960;2022-11-20T03:12:05;99281.06;;;-1.63;74.12
75045;BME280;63614;56.026;35.960;2022-11-20T03:14:31;99285.16;;;-1.49;73.07
75045;BME280;63614;56.026;35.960;2022-11-20T03:16:57;99284.78;;;-1.56;73.13
75045;BME280;63614;56.026;35.960;2022-11-20T03:19:23;99288.94;;;-1.66;73.14
75045;BME280;63614;56.026;35.960;2022-11-20T03:21:49;99289.75;;;-1.66;73.89
75045;BME280;63614;56.026;35.960;2022-11-20T03:24:14;99287.88;;;-1.75;72.98
75045;BME280;63614;56.026;35.960;2022-11-20T03:26:40;99288.41;;;-1.83;73.62
75045;BME280;63614;56.026;35.960;2022-11-20T03:29:07;99292.72;;;-1.83;72.96
75045;BME280;63614;56.026;35.960;2022-11-20T03:31:38;99292.78;;;-1.96;73.59
75045;BME280;63614;56.026;35.960;2022-11-20T03:34:09;99302.59;;;-2.03;74.12
75045;BME280;63614;56.026;35.960;2022-11-20T03:36:41;99304.75;;;-2.09;73.42
75045;BME280;63614;56.026;35.960;2022-11-20T03:39:07;99315.09;;;-2.24;73.85
75045;BME280;63614;56.026;35.960;2022-11-20T03:41:39;99315.50;;;-2.17;74.27
75045;BME280;63614;56.026;35.960;2022-11-20T03:44:07;99315.31;;;-2.27;74.33
75045;BME280;63614;56.026;35.960;2022-11-20T03:46:33;99313.28;;;-2.22;74.94
75045;BME280;63614;56.026;35.960;2022-11-20T03:48:59;99315.66;;;-2.07;74.15
75045;BME280;63614;56.026;35.960;2022-11-20T03:51:30;99319.13;;;-2.08;73.90
75045;BME280;63614;56.026;35.960;2022-11-20T03:53:58;99317.50;;;-2.09;73.42
75045;BME280;63614;56.026;35.960;2022-11-20T03:56:36;99321.50;;;-2.18;74.33
75045;BME280;63614;56.026;35.960;2022-11-20T03:59:03;99323.59;;;-1.99;73.71
75045;BME280;63614;56.026;35.960;2022-11-20T04:01:33;99324.81;;;-2.05;73.47
75045;BME280;63614;56.026;35.960;2022-11-20T04:03:59;99327.91;;;-2.12;74.81
75045;BME280;63614;56.026;35.960;2022-11-20T04:06:43;99325.66;;;-2.04;73.99
75045;BME280;63614;56.026;35.960;2022-11-20T04:09:09;99323.91;;;-2.04;73.95
75045;BME280;63614;56.026;35.960;2022-11-20T04:11:37;99317.66;;;-1.99;73.89
75045;BME280;63614;56.026;35.960;2022-11-20T04:14:06;99328.84;;;-1.89;74.04
75045;BME280;63614;56.026;35.960;2022-11-20T04:16:35;99331.97;;;-1.86;73.56
75045;BME280;63614;56.026;35.960;2022-11-20T04:19:04;99337.94;;;-1.98;73.36
75045;BME280;63614;56.026;35.960;2022-11-20T04:21:30;99329.66;;;-2.13;73.90
75045;BME280;63614;56.026;35.960;2022-11-20T04:23:56;99333.84;;;-2.12;74.62
75045;BME280;63614;56.026;35.960;2022-11-20T04:26:24;99343.03;;;-1.98;73.50
75045;BME280;63614;56.026;35.960;2022-11-20T04:28:51;99339.13;;;-2.15;73.65
75045;BME280;63614;56.026;35.960;2022-11-20T04:31:22;99364.03;;;-2.18;73.67
75045;BME280;63614;56.026;35.960;2022-11-20T04:33:48;99346.88;;;-2.41;74.33
75045;BME280;63614;56.026;35.960;2022-11-20T04:36:20;99358.16;;;-2.45;74.95
75045;BME280;63614;56.026;35.960;2022-11-20T04:38:50;99362.63;;;-2.35;74.92
75045;BME280;63614;56.026;35.960;2022-11-20T04:41:18;99351.41;;;-2.20;74.81
75045;BME280;63614;56.026;35.960;2022-11-20T04:43:52;99350.41;;;-2.06;74.34
75045;BME280;63614;56.026;35.960;2022-11-20T04:46:20;99356.13;;;-2.03;74.01
75045;BME280;63614;56.026;35.960;2022-11-20T04:48:47;99355.41;;;-2.05;73.75
75045;BME280;63614;56.026;35.960;2022-11-20T04:51:13;99364.84;;;-2.18;73.94
75045;BME280;63614;56.026;35.960;2022-11-20T04:53:39;99353.03;;;-2.32;74.76
75045;BME280;63614;56.026;35.960;2022-11-20T04:56:07;99362.66;;;-2.48;75.20
75045;BME280;63614;56.026;35.960;2022-11-20T04:58:33;99363.19;;;-2.19;74.48
75045;BME280;63614;56.026;35.960;2022-11-20T05:01:05;99382.78;;;-2.20;74.29
75045;BME280;63614;56.026;35.960;2022-11-20T05:03:31;99380.88;;;-2.05;73.91
75045;BME280;63614;56.026;35.960;2022-11-20T05:06:00;99379.97;;;-2.04;74.35
75045;BME280;63614;56.026;35.960;2022-11-20T05:08:27;99379.66;;;-1.99;74.29
75045;BME280;63614;56.026;35.960;2022-11-20T05:10:53;99385.50;;;-2.10;74.41
75045;BME280;63614;56.026;35.960;2022-11-20T05:13:19;99384.22;;;-1.91;73.71
75045;BME280;63614;56.026;35.960;2022-11-20T05:15:45;99390.72;;;-1.87;73.44
75045;BME280;63614;56.026;35.960;2022-11-20T05:18:11;99388.44;;;-1.79;73.54
75045;BME280;63614;56.026;35.960;2022-11-20T05:20:36;99391.28;;;-1.71;73.09
75045;BME280;63614;56.026;35.960;2022-11-20T05:23:02;99388.84;;;-1.72;73.21
75045;BME280;63614;56.026;35.960;2022-11-20T05:25:28;99379.94;;;-1.91;73.82
75045;BME280;63614;56.026;35.960;2022-11-20T05:27:54;99392.75;;;-1.79;73.89
75045;BME280;63614;56.026;35.960;2022-11-20T05:30:20;99384.97;;;-1.78;73.75
75045;BME280;63614;56.026;35.960;2022-11-20T05:32:45;99391.72;;;-1.77;73.76
75045;BME280;63614;56.026;35.960;2022-11-20T05:35:11;99398.31;;;-1.74;72.99
75045;BME280;63614;56.026;35.960;2022-11-20T05:37:37;99407.22;;;-1.80;73.47
75045;BME280;63614;56.026;35.960;2022-11-20T05:40:03;99413.56;;;-1.86;73.47
75045;BME280;63614;56.026;35.960;2022-11-20T05:42:32;99412.16;;;-1.90;73.74
75045;BME280;63614;56.026;35.960;2022-11-20T05:45:03;99418.66;;;-1.86;73.20
75045;BME280;63614;56.026;35.960;2022-11-20T05:47:34;99426.09;;;-1.83;73.81
75045;BME280;63614;56.026;35.960;2022-11-20T05:50:00;99438.34;;;-1.88;73.40
75045;BME280;63614;56.026;35.960;2022-11-20T05:52:29;99433.44;;;-1.78;73.43
75045;BME280;63614;56.026;35.960;2022-11-20T05:54:56;99436.72;;;-1.89;73.94
75045;BME280;63614;56.026;35.960;2022-11-20T05:57:22;99442.09;;;-1.80;73.75
75045;BME280;63614;56.026;35.960;2022-11-20T05:59:48;99445.75;;;-1.72;73.20
75045;BME280;63614;56.026;35.960;2022-11-20T06:02:14;99448.34;;;-1.60;72.90
75045;BME280;63614;56.026;35.960;2022-11-20T06:04:39;99440.13;;;-1.64;73.37
75045;BME280;63614;56.026;35.960;2022-11-20T06:07:06;99439.22;;;-1.76;73.83
75045;BME280;63614;56.026;35.960;2022-11-20T06:09:32;99451.16;;;-1.76;73.69
75045;BME280;63614;56.026;35.960;2022-11-20T06:11:58;99458.41;;;-1.70;73.77
75045;BME280;63614;56.026;35.960;2022-11-20T06:14:24;99463.19;;;-1.66;73.44
75045;BME280;63614;56.026;35.960;2022-11-20T06:16:50;99463.59;;;-1.72;73.57
75045;BME280;63614;56.026;35.960;2022-11-20T06:19:16;99459.69;;;-1.65;73.23
75045;BME280;63614;56.026;35.960;2022-11-20T06:21:42;99464.56;;;-1.61;73.43
75045;BME280;63614;56.026;35.960;2022-11-20T06:24:11;99459.16;;;-1.57;72.95
75045;BME280;63614;56.026;35.960;2022-11-20T06:26:37;99466.53;;;-1.65;73.24
75045;BME280;63614;56.026;35.960;2022-11-20T06:29:02;99456.13;;;-1.62;73.10
75045;BME280;63614;56.026;35.960;2022-11-20T06:31:29;99452.19;;;-1.55;73.14
75045;BME280;63614;56.026;35.960;2022-11-20T06:33:58;99452.34;;;-1.69;73.43
75045;BME280;63614;56.026;35.960;2022-11-20T06:36:23;99451.72;;;-1.60;73.48
75045;BME280;63614;56.026;35.960;2022-11-20T06:38:50;99454.53;;;-1.52;73.40
75045;BME280;63614;56.026;35.960;2022-11-20T06:41:19;99456.38;;;-1.54;73.40
75045;BME280;63614;56.026;35.960;2022-11-20T06:43:45;99450.97;;;-1.49;73.02
75045;BME280;63614;56.026;35.960;2022-11-20T06:46:12;99455.69;;;-1.56;73.56
75045;BME280;63614;56.026;35.960;2022-11-20T06:48:39;99460.94;;;-1.46;72.89
75045;BME280;63614;56.026;35.960;2022-11-20T06:51:06;99455.09;;;-1.35;72.81
75045;BME280;63614;56.026;35.960;2022-11-20T06:53:33;99454.75;;;-1.55;72.88
75045;BME280;63614;56.026;35.960;2022-11-20T06:55:59;99466.47;;;-1.52;73.36
75045;BME280;63614;56.026;35.960;2022-11-20T06:58:30;99462.50;;;-1.43;73.17
75045;BME280;63614;56.026;35.960;2022-11-20T07:01:00;99465.88;;;-1.32;73.32
75045;BME280;63614;56.026;35.960;2022-11-20T07:03:26;99464.25;;;-1.33;73.14
75045;BME280;63614;56.026;35.960;2022-11-20T07:05:56;99465.16;;;-1.10;72.42
75045;BME280;63614;56.026;35.960;2022-11-20T07:08:23;99471.34;;;-1.01;72.38
75045;BME280;63614;56.026;35.960;2022-11-20T07:10:49;99473.53;;;-1.07;72.15
75045;BME280;63614;56.026;35.960;2022-11-20T07:13:15;99477.56;;;-1.16;72.52
75045;BME280;63614;56.026;35.960;2022-11-20T07:15:41;99477.69;;;-1.18;72.83
75045;BME280;63614;56.026;35.960;2022-11-20T07:18:06;99478.66;;;-1.32;72.71
75045;BME280;63614;56.026;35.960;2022-11-20T07:20:32;99488.25;;;-1.35;73.16
75045;BME280;63614;56.026;35.960;2022-11-20T07:22:58;99492.44;;;-1.34;73.19
75045;BME280;63614;56.026;35.960;2022-11-20T07:25:26;99504.81;;;-1.41;73.12
75045;BME280;63614;56.026;35.960;2022-11-20T07:27:52;99505.41;;;-1.37;73.85
75045;BME280;63614;56.026;35.960;2022-11-20T07:30:19;99502.47;;;-1.20;73.01
75045;BME280;63614;56.026;35.960;2022-11-20T07:32:51;99512.25;;;-1.38;73.73
75045;BME280;63614;56.026;35.960;2022-11-20T07:35:17;99516.34;;;-1.35;73.96
75045;BME280;63614;56.026;35.960;2022-11-20T07:37:44;99527.72;;;-1.28;73.77
75045;BME280;63614;56.026;35.960;2022-11-20T07:40:17;99528.44;;;-1.26;73.85
75045;BME280;63614;56.026;35.960;2022-11-20T07:42:53;99525.22;;;-1.41;74.12
75045;BME280;63614;56.026;35.960;2022-11-20T07:45:21;99524.25;;;-1.51;74.29
75045;BME280;63614;56.026;35.960;2022-11-20T07:47:48;99516.75;;;-1.41;74.44
75045;BME280;63614;56.026;35.960;2022-11-20T07:50:14;99507.09;;;-1.25;73.30
75045;BME280;63614;56.026;35.960;2022-11-20T07:52:40;99513.84;;;-1.24;73.83
75045;BME280;63614;56.026;35.960;2022-11-20T07:55:07;99511.28;;;-1.24;73.81
75045;BME280;63614;56.026;35.960;2022-11-20T07:57:33;99517.94;;;-1.34;74.41
75045;BME280;63614;56.026;35.960;2022-11-20T07:59:59;99528.38;;;-1.37;74.67
75045;BME280;63614;56.026;35.960;2022-11-20T08:02:25;99527.78;;;-1.17;73.84
75045;BME280;63614;56.026;35.960;2022-11-20T08:04:51;99530.22;;;-0.91;73.41
75045;BME280;63614;56.026;35.960;2022-11-20T08:07:17;99529.91;;;-0.75;73.34
75045;BME280;63614;56.026;35.960;2022-11-20T08:09:43;99536.47;;;-0.60;72.19
75045;BME280;63614;56.026;35.960;2022-11-20T08:12:17;99538.03;;;-0.46;71.89
75045;BME280;63614;56.026;35.960;2022-11-20T08:15:03;99530.50;;;-0.36;71.73
75045;BME280;63614;56.026;35.960;2022-11-20T08:17:29;99523.16;;;-0.41;71.27
75045;BME280;63614;56.026;35.960;2022-11-20T08:19:55;99537.50;;;-0.15;70.57
75045;BME280;63614;56.026;35.960;2022-11-20T08:22:21;99542.59;;;-0.27;70.91
75045;BME280;63614;56.026;35.960;2022-11-20T08:24:47;99557.09;;;-0.27;70.94
75045;BME280;63614;56.026;35.960;2022-11-20T08:27:13;99561.00;;;-0.57;71.74
75045;BME280;63614;56.026;35.960;2022-11-20T08:29:39;99583.78;;;-0.43;72.02
75045;BME280;63614;56.026;35.960;2022-11-20T08:32:05;99581.38;;;-0.33;71.28
75045;BME280;63614;56.026;35.960;2022-11-20T08:34:31;99584.03;;;-0.46;70.92
75045;BME280;63614;56.026;35.960;2022-11-20T08:36:57;99588.72;;;-0.28;70.04
75045;BME280;63614;56.026;35.960;2022-11-20T08:39:23;99592.34;;;-0.08;69.90
75045;BME280;63614;56.026;35.960;2022-11-20T08:41:49;99591.63;;;-0.22;69.61
75045;BME280;63614;56.026;35.960;2022-11-20T08:44:15;99588.47;;;-0.37;70.17
75045;BME280;63614;56.026;35.960;2022-11-20T08:46:41;99587.34;;;-0.10;69.52
75045;BME280;63614;56.026;35.960;2022-11-20T08:49:10;99596.97;;;-0.25;69.39
75045;BME280;63614;56.026;35.960;2022-11-20T08:51:37;99597.41;;;-0.31;69.52
75045;BME280;63614;56.026;35.960;2022-11-20T08:54:04;99595.00;;;-0.21;69.28
75045;BME280;63614;56.026;35.960;2022-11-20T08:56:31;99596.16;;;-0.25;68.90
75045;BME280;63614;56.026;35.960;2022-11-20T08:58:57;99594.06;;;-0.20;69.09
75045;BME280;63614;56.026;35.960;2022-11-20T09:01:25;99613.22;;;-0.26;69.29
75045;BME280;63614;56.026;35.960;2022-11-20T09:03:51;99622.78;;;-0.05;68.08
75045;BME280;63614;56.026;35.960;2022-11-20T09:06:17;99628.03;;;0.05;67.74
75045;BME280;63614;56.026;35.960;2022-11-20T09:08:44;99633.75;;;-0.03;68.48
75045;BME280;63614;56.026;35.960;2022-11-20T09:11:10;99631.06;;;-0.02;68.09
75045;BME280;63614;56.026;35.960;2022-11-20T09:13:36;99638.44;;;0.14;67.52
75045;BME280;63614;56.026;35.960;2022-11-20T09:16:07;99634.13;;;0.15;67.33
75045;BME280;63614;56.026;35.960;2022-11-20T09:18:34;99633.88;;;0.18;67.37
75045;BME280;63614;56.026;35.960;2022-11-20T09:21:06;99640.94;;;0.03;67.60
75045;BME280;63614;56.026;35.960;2022-11-20T09:23:35;99638.13;;;-0.05;67.65
75045;BME280;63614;56.026;35.960;2022-11-20T09:26:03;99648.97;;;-0.02;66.47
75045;BME280;63614;56.026;35.960;2022-11-20T09:28:29;99652.31;;;-0.12;64.96
75045;BME280;63614;56.026;35.960;2022-11-20T09:30:55;99657.88;;;-0.19;64.75
75045;BME280;63614;56.026;35.960;2022-11-20T09:33:21;99663.72;;;-0.41;65.25
75045;BME280;63614;56.026;35.960;2022-11-20T09:35:47;99662.91;;;-0.41;66.04
75045;BME280;63614;56.026;35.960;2022-11-20T09:38:13;99665.13;;;-0.61;66.15
75045;BME280;63614;56.026;35.960;2022-11-20T09:41:06;99664.81;;;-0.56;65.85
75045;BME280;63614;56.026;35.960;2022-11-20T09:43:52;99671.00;;;-0.71;66.24
75045;BME280;63614;56.026;35.960;2022-11-20T09:46:35;99674.22;;;-0.57;65.96
75045;BME280;63614;56.026;35.960;2022-11-20T09:49:25;99680.75;;;-0.52;65.62
75045;BME280;63614;56.026;35.960;2022-11-20T09:52:00;99690.28;;;-0.43;64.98
75045;BME280;63614;56.026;35.960;2022-11-20T09:54:34;99690.56;;;-0.59;65.36
75045;BME280;63614;56.026;35.960;2022-11-20T09:57:22;99689.47;;;-0.68;65.56
75045;BME280;63614;56.026;35.960;2022-11-20T09:59:58;99702.19;;;-0.79;65.93
75045;BME280;63614;56.026;35.960;2022-11-20T10:02:48;99704.19;;;-0.59;65.43
75045;BME280;63614;56.026;35.960;2022-11-20T10:05:29;99687.56;;;-0.77;66.40
75045;BME280;63614;56.026;35.960;2022-11-20T10:08:22;99687.19;;;-0.84;66.72
75045;BME280;63614;56.026;35.960;2022-11-20T10:14:02;99705.47;;;-0.90;65.54
75045;BME280;63614;56.026;35.960;2022-11-20T10:17:03;99704.75;;;-0.79;65.79
75045;BME280;63614;56.026;35.960;2022-11-20T10:29:34;99726.63;;;-0.88;66.50
75045;BME280;63614;56.026;35.960;2022-11-20T10:32:04;99724.41;;;-1.05;67.41
75045;BME280;63614;56.026;35.960;2022-11-20T10:34:50;99719.81;;;-1.00;66.71
75045;BME280;63614;56.026;35.960;2022-11-20T10:37:24;99731.47;;;-1.09;66.72
75045;BME280;63614;56.026;35.960;2022-11-20T10:42:39;99726.31;;;-0.96;66.24
75045;BME280;63614;56.026;35.960;2022-11-20T10:47:50;99732.63;;;-1.26;67.13
75045;BME280;63614;56.026;35.960;2022-11-20T10:50:19;99740.97;;;-1.24;67.02
75045;BME280;63614;56.026;35.960;2022-11-20T10:55:44;99736.38;;;-1.19;67.35
75045;BME280;63614;56.026;35.960;2022-11-20T11:01:06;99735.06;;;-1.24;67.03
75045;BME280;63614;56.026;35.960;2022-11-20T11:03:39;99736.88;;;-1.26;67.11
75045;BME280;63614;56.026;35.960;2022-11-20T11:08:50;99747.09;;;-1.39;67.27
75045;BME280;63614;56.026;35.960;2022-11-20T11:11:24;99750.47;;;-1.13;66.66
75045;BME280;63614;56.026;35.960;2022-11-20T11:13:51;99751.06;;;-0.97;66.20
75045;BME280;63614;56.026;35.960;2022-11-20T11:16:23;99749.09;;;-0.93;65.95
75045;BME280;63614;56.026;35.960;2022-11-20T11:18:50;99745.06;;;-1.08;66.76
75045;BME280;63614;56.026;35.960;2022-11-20T11:21:26;99757.56;;;-0.93;66.72
75045;BME280;63614;56.026;35.960;2022-11-20T11:27:12;99745.72;;;-0.81;66.43
75045;BME280;63614;56.026;35.960;2022-11-20T11:29:38;99745.41;;;-0.76;66.32
75045;BME280;63614;56.026;35.960;2022-11-20T11:32:11;99740.69;;;-0.69;66.51
75045;BME280;63614;56.026;35.960;2022-11-20T11:34:37;99741.31;;;-0.79;66.82
75045;BME280;63614;56.026;35.960;2022-11-20T11:37:04;99737.34;;;-0.83;67.64
75045;BME280;63614;56.026;35.960;2022-11-20T11:39:42;99727.53;;;-0.76;66.62
75045;BME280;63614;56.026;35.960;2022-11-20T11:42:13;99737.66;;;-0.87;67.10
75045;BME280;63614;56.026;35.960;2022-11-20T11:44:45;99731.94;;;-0.78;66.73
75045;BME280;63614;56.026;35.960;2022-11-20T11:47:31;99739.19;;;-0.98;66.65
75045;BME280;63614;56.026;35.960;2022-11-20T11:56:04;99740.81;;;-0.84;66.45
75045;BME280;63614;56.026;35.960;2022-11-20T11:58:51;99733.97;;;-0.83;66.38
75045;BME280;63614;56.026;35.960;2022-11-20T12:01:30;99737.22;;;-0.68;65.62
75045;BME280;63614;56.026;35.960;2022-11-20T12:04:18;99736.66;;;-0.61;65.54
75045;BME280;63614;56.026;35.960;2022-11-20T12:06:52;99734.34;;;-0.64;65.27
75045;BME280;63614;56.026;35.960;2022-11-20T12:09:24;99734.81;;;-0.83;64.51
75045;BME280;63614;56.026;35.960;2022-11-20T12:12:08;99741.06;;;-1.00;63.05
75045;BME280;63614;56.026;35.960;2022-11-20T12:17:02;99749.44;;;-1.11;62.86
75045;BME280;63614;56.026;35.960;2022-11-20T12:19:33;99753.31;;;-0.92;63.17
75045;BME280;63614;56.026;35.960;2022-11-20T12:22:39;99749.91;;;-0.80;62.47
75045;BME280;63614;56.026;35.960;2022-11-20T12:25:14;99762.13;;;-0.72;62.91
75045;BME280;63614;56.026;35.960;2022-11-20T12:30:21;99752.56;;;-0.81;62.26
75045;BME280;63614;56.026;35.960;2022-11-20T12:38:51;99753.53;;;-1.08;63.38
75045;BME280;63614;56.026;35.960;2022-11-20T12:58:10;99746.19;;;-1.25;63.63
75045;BME280;63614;56.026;35.960;2022-11-20T13:00:43;99749.53;;;-1.25;63.31
75045;BME280;63614;56.026;35.960;2022-11-20T13:03:34;99752.19;;;-1.26;63.83
75045;BME280;63614;56.026;35.960;2022-11-20T13:08:39;99753.44;;;-1.58;64.57
75045;BME280;63614;56.026;35.960;2022-11-20T13:16:34;99765.56;;;-1.23;64.13
75045;BME280;63614;56.026;35.960;2022-11-20T13:19:04;99770.56;;;-1.34;63.42
75045;BME280;63614;56.026;35.960;2022-11-20T13:21:35;99776.50;;;-1.34;63.39
75045;BME280;63614;56.026;35.960;2022-11-20T13:24:31;99780.84;;;-1.49;63.13
75045;BME280;63614;56.026;35.960;2022-11-20T13:29:44;99786.31;;;-1.40;63.59
75045;BME280;63614;56.026;35.960;2022-11-20T13:34:39;99786.63;;;-1.19;62.66
75045;BME280;63614;56.026;35.960;2022-11-20T13:37:30;99780.78;;;-1.21;62.33
75045;BME280;63614;56.026;35.960;2022-11-20T13:42:44;99785.16;;;-1.11;61.60
75045;BME280;63614;56.026;35.960;2022-11-20T13:45:24;99785.56;;;-1.17;61.56
75045;BME280;63614;56.026;35.960;2022-11-20T13:47:52;99777.81;;;-1.15;61.60
75045;BME280;63614;56.026;35.960;2022-11-20T13:50:19;99792.03;;;-1.24;62.39
75045;BME280;63614;56.026;35.960;2022-11-20T13:53:45;99788.44;;;-1.21;62.60
75045;BME280;63614;56.026;35.960;2022-11-20T13:55:54;99800.06;;;-1.30;62.61
75045;BME280;63614;56.026;35.960;2022-11-20T13:58:51;99806.84;;;-1.16;63.08
75045;BME280;63614;56.026;35.960;2022-11-20T14:01:21;99806.53;;;-1.24;62.23
75045;BME280;63614;56.026;35.960;2022-11-20T14:03:50;99809.69;;;-1.34;61.75
75045;BME280;63614;56.026;35.960;2022-11-20T14:06:29;99816.94;;;-1.27;61.98
75045;BME280;63614;56.026;35.960;2022-11-20T14:08:57;99814.28;;;-1.26;61.73
75045;BME280;63614;56.026;35.960;2022-11-20T14:11:26;99812.91;;;-1.44;62.19
75045;BME280;63614;56.026;35.960;2022-11-20T14:16:31;99824.44;;;-1.39;61.80
75045;BME280;63614;56.026;35.960;2022-11-20T14:21:49;99824.59;;;-1.27;61.71
75045;BME280;63614;56.026;35.960;2022-11-20T14:24:22;99834.81;;;-1.15;61.92
75045;BME280;63614;56.026;35.960;2022-11-20T14:26:50;99833.38;;;-1.06;61.52
75045;BME280;63614;56.026;35.960;2022-11-20T14:29:18;99837.78;;;-1.08;61.89
75045;BME280;63614;56.026;35.960;2022-11-20T14:31:48;99827.56;;;-0.95;61.30